sensor_id;sensor_type;location;lat;lon;timestamp;temperature;humidity
16863;DHT22;52193;48.216;-1.698;2023-04-03T00:01:27;12.90;96.70
16863;DHT22;52193;48.216;-1.698;2023-04-03T00:03:54;12.90;96.70
16863;DHT22;52193;48.216;-1.698;2023-04-03T00:06:21;12.80;96.70
16863;DHT22;52193;48.216;-1.698;2023-04-03T00:08:48;12.80;96.80
16863;DHT22;52193;48.216;-1.698;2023-04-03T00:11:17;12.80;96.80
16863;DHT22;52193;48.216;-1.698;2023-04-03T00:13:44;12.70;96.90
16863;DHT22;52193;48.216;-1.698;2023-04-03T00:16:12;12.80;96.80
16863;DHT22;52193;48.216;-1.698;2023-04-03T00:18:39;12.70;96.80
16863;DHT22;52193;48.216;-1.698;2023-04-03T00:21:07;12.60;96.80
16863;DHT22;52193;48.216;-1.698;2023-04-03T00:23:34;12.60;96.90
16863;DHT22;52193;48.216;-1.698;2023-04-03T00:26:01;12.60;96.80
16863;DHT22;52193;48.216;-1.698;2023-04-03T00:28:30;12.60;96.80
16863;DHT22;52193;48.216;-1.698;2023-04-03T00:30:57;12.60;96.90
16863;DHT22;52193;48.216;-1.698;2023-04-03T00:33:24;12.50;96.80
16863;DHT22;52193;48.216;-1.698;2023-04-03T00:35:51;12.50;96.80
16863;DHT22;52193;48.216;-1.698;2023-04-03T00:38:18;12.50;96.80
16863;DHT22;52193;48.216;-1.698;2023-04-03T00:40:47;12.60;96.90
16863;DHT22;52193;48.216;-1.698;2023-04-03T00:43:17;12.50;96.80
16863;DHT22;52193;48.216;-1.698;2023-04-03T00:45:46;12.50;96.80
16863;DHT22;52193;48.216;-1.698;2023-04-03T00:48:17;12.40;96.70
16863;DHT22;52193;48.216;-1.698;2023-04-03T00:50:45;12.40;96.80
16863;DHT22;52193;48.216;-1.698;2023-04-03T00:53:17;12.40;96.70
16863;DHT22;52193;48.216;-1.698;2023-04-03T00:55:47;12.40;96.80
16863;DHT22;52193;48.216;-1.698;2023-04-03T00:58:15;12.30;96.80
16863;DHT22;52193;48.216;-1.698;2023-04-03T01:00:49;12.30;96.70
16863;DHT22;52193;48.216;-1.698;2023-04-03T01:03:21;12.30;96.70
16863;DHT22;52193;48.216;-1.698;2023-04-03T01:05:48;12.30;96.70
16863;DHT22;52193;48.216;-1.698;2023-04-03T01:08:15;12.20;96.70
16863;DHT22;52193;48.216;-1.698;2023-04-03T01:10:43;12.20;96.80
16863;DHT22;52193;48.216;-1.698;2023-04-03T01:13:25;12.20;96.70
16863;DHT22;52193;48.216;-1.698;2023-04-03T01:15:54;12.20;96.60
16863;DHT22;52193;48.216;-1.698;2023-04-03T01:18:22;12.20;96.60
16863;DHT22;52193;48.216;-1.698;2023-04-03T01:24:01;12.10;96.70
16863;DHT22;52193;48.216;-1.698;2023-04-03T01:26:32;12.10;96.70
16863;DHT22;52193;48.216;-1.698;2023-04-03T01:29:00;12.10;96.70
16863;DHT22;52193;48.216;-1.698;2023-04-03T01:31:31;12.00;96.60
16863;DHT22;52193;48.216;-1.698;2023-04-03T01:34:01;11.90;96.90
16863;DHT22;52193;48.216;-1.698;2023-04-03T01:36:29;12.00;96.70
16863;DHT22;52193;48.216;-1.698;2023-04-03T01:38:58;12.00;96.70
16863;DHT22;52193;48.216;-1.698;2023-04-03T01:41:26;12.00;96.70
16863;DHT22;52193;48.216;-1.698;2023-04-03T01:43:53;12.00;96.60
16863;DHT22;52193;48.216;-1.698;2023-04-03T01:46:20;12.00;96.60
16863;DHT22;52193;48.216;-1.698;2023-04-03T01:48:47;11.90;96.60
16863;DHT22;52193;48.216;-1.698;2023-04-03T01:51:16;11.80;96.60
16863;DHT22;52193;48.216;-1.698;2023-04-03T01:53:43;11.80;96.60
16863;DHT22;52193;48.216;-1.698;2023-04-03T01:56:10;11.80;96.60
16863;DHT22;52193;48.216;-1.698;2023-04-03T01:58:37;11.80;96.50
16863;DHT22;52193;48.216;-1.698;2023-04-03T02:01:04;11.80;96.50
16863;DHT22;52193;48.216;-1.698;2023-04-03T02:03:32;11.80;96.50
16863;DHT22;52193;48.216;-1.698;2023-04-03T02:05:59;11.90;96.50
16863;DHT22;52193;48.216;-1.698;2023-04-03T02:08:27;11.80;96.50
16863;DHT22;52193;48.216;-1.698;2023-04-03T02:10:54;11.80;96.50
16863;DHT22;52193;48.216;-1.698;2023-04-03T02:13:21;11.80;96.60
16863;DHT22;52193;48.216;-1.698;2023-04-03T02:15:48;11.80;96.60
16863;DHT22;52193;48.216;-1.698;2023-04-03T02:18:15;11.80;96.60
16863;DHT22;52193;48.216;-1.698;2023-04-03T02:20:42;11.80;96.70
16863;DHT22;52193;48.216;-1.698;2023-04-03T02:23:09;11.80;96.70
16863;DHT22;52193;48.216;-1.698;2023-04-03T02:25:37;11.80;96.70
16863;DHT22;52193;48.216;-1.698;2023-04-03T02:28:05;11.80;96.80
16863;DHT22;52193;48.216;-1.698;2023-04-03T02:30:32;11.80;96.80
16863;DHT22;52193;48.216;-1.698;2023-04-03T02:32:59;11.70;96.80
16863;DHT22;52193;48.216;-1.698;2023-04-03T02:35:26;11.80;96.90
16863;DHT22;52193;48.216;-1.698;2023-04-03T02:37:52;11.80;96.80
16863;DHT22;52193;48.216;-1.698;2023-04-03T02:40:20;11.70;96.90
16863;DHT22;52193;48.216;-1.698;2023-04-03T02:42:48;11.80;96.90
16863;DHT22;52193;48.216;-1.698;2023-04-03T02:45:15;11.80;96.80
16863;DHT22;52193;48.216;-1.698;2023-04-03T02:47:42;11.80;96.80
16863;DHT22;52193;48.216;-1.698;2023-04-03T02:50:09;11.80;96.80
16863;DHT22;52193;48.216;-1.698;2023-04-03T02:52:36;11.80;96.80
16863;DHT22;52193;48.216;-1.698;2023-04-03T02:55:04;11.80;96.90
16863;DHT22;52193;48.216;-1.698;2023-04-03T02:57:31;11.80;96.90
16863;DHT22;52193;48.216;-1.698;2023-04-03T02:59:59;11.90;96.90
16863;DHT22;52193;48.216;-1.698;2023-04-03T03:02:26;11.80;96.90
16863;DHT22;52193;48.216;-1.698;2023-04-03T03:04:53;11.80;96.80
16863;DHT22;52193;48.216;-1.698;2023-04-03T03:07:20;11.90;96.70
16863;DHT22;52193;48.216;-1.698;2023-04-03T03:09:47;11.90;96.70
16863;DHT22;52193;48.216;-1.698;2023-04-03T03:12:14;11.90;96.60
16863;DHT22;52193;48.216;-1.698;2023-04-03T03:14:41;11.90;96.50
16863;DHT22;52193;48.216;-1.698;2023-04-03T03:17:09;12.00;96.60
16863;DHT22;52193;48.216;-1.698;2023-04-03T03:19:36;12.00;96.50
16863;DHT22;52193;48.216;-1.698;2023-04-03T03:22:03;12.00;96.50
16863;DHT22;52193;48.216;-1.698;2023-04-03T03:24:30;12.00;96.40
16863;DHT22;52193;48.216;-1.698;2023-04-03T03:26:57;12.00;96.40
16863;DHT22;52193;48.216;-1.698;2023-04-03T03:29:24;12.00;96.30
16863;DHT22;52193;48.216;-1.698;2023-04-03T03:31:52;12.00;96.30
16863;DHT22;52193;48.216;-1.698;2023-04-03T03:34:20;12.10;96.40
16863;DHT22;52193;48.216;-1.698;2023-04-03T03:36:47;12.10;96.30
16863;DHT22;52193;48.216;-1.698;2023-04-03T03:39:14;12.10;96.40
16863;DHT22;52193;48.216;-1.698;2023-04-03T03:41:41;12.10;96.40
16863;DHT22;52193;48.216;-1.698;2023-04-03T03:44:08;12.10;96.30
16863;DHT22;52193;48.216;-1.698;2023-04-03T03:46:35;12.10;96.20
16863;DHT22;52193;48.216;-1.698;2023-04-03T03:49:02;12.10;96.20
16863;DHT22;52193;48.216;-1.698;2023-04-03T03:51:30;12.10;96.10
16863;DHT22;52193;48.216;-1.698;2023-04-03T03:53:57;12.10;96.00
16863;DHT22;52193;48.216;-1.698;2023-04-03T03:56:24;12.10;96.10
16863;DHT22;52193;48.216;-1.698;2023-04-03T03:58:52;12.10;96.10
16863;DHT22;52193;48.216;-1.698;2023-04-03T04:01:19;12.10;96.00
16863;DHT22;52193;48.216;-1.698;2023-04-03T04:03:46;12.10;95.70
16863;DHT22;52193;48.216;-1.698;2023-04-03T04:06:13;12.00;95.40
16863;DHT22;52193;48.216;-1.698;2023-04-03T04:08:41;11.90;95.20
16863;DHT22;52193;48.216;-1.698;2023-04-03T04:11:08;11.80;95.10
16863;DHT22;52193;48.216;-1.698;2023-04-03T04:13:35;11.80;95.10
16863;DHT22;52193;48.216;-1.698;2023-04-03T04:16:02;11.80;94.90
16863;DHT22;52193;48.216;-1.698;2023-04-03T04:18:29;11.80;94.80
16863;DHT22;52193;48.216;-1.698;2023-04-03T04:20:56;11.70;94.50
16863;DHT22;52193;48.216;-1.698;2023-04-03T04:23:23;11.60;94.30
16863;DHT22;52193;48.216;-1.698;2023-04-03T04:25:52;11.60;94.30
16863;DHT22;52193;48.216;-1.698;2023-04-03T04:28:19;11.60;94.20
16863;DHT22;52193;48.216;-1.698;2023-04-03T04:30:46;11.60;94.00
16863;DHT22;52193;48.216;-1.698;2023-04-03T04:33:13;11.60;93.90
16863;DHT22;52193;48.216;-1.698;2023-04-03T04:35:42;11.50;93.90
16863;DHT22;52193;48.216;-1.698;2023-04-03T04:38:09;11.50;93.80
16863;DHT22;52193;48.216;-1.698;2023-04-03T04:40:36;11.40;93.80
16863;DHT22;52193;48.216;-1.698;2023-04-03T04:43:05;11.40;93.90
16863;DHT22;52193;48.216;-1.698;2023-04-03T04:45:32;11.40;93.80
16863;DHT22;52193;48.216;-1.698;2023-04-03T04:47:58;11.40;93.90
16863;DHT22;52193;48.216;-1.698;2023-04-03T04:50:25;11.40;93.90
16863;DHT22;52193;48.216;-1.698;2023-04-03T04:52:52;11.40;93.90
16863;DHT22;52193;48.216;-1.698;2023-04-03T04:55:19;11.40;94.00
16863;DHT22;52193;48.216;-1.698;2023-04-03T04:57:46;11.30;94.00
16863;DHT22;52193;48.216;-1.698;2023-04-03T05:00:15;11.30;94.10
16863;DHT22;52193;48.216;-1.698;2023-04-03T05:02:43;11.30;94.00
16863;DHT22;52193;48.216;-1.698;2023-04-03T05:05:09;11.30;94.10
16863;DHT22;52193;48.216;-1.698;2023-04-03T05:07:36;11.30;94.10
16863;DHT22;52193;48.216;-1.698;2023-04-03T05:10:04;11.30;94.10
16863;DHT22;52193;48.216;-1.698;2023-04-03T05:12:32;11.30;94.10
16863;DHT22;52193;48.216;-1.698;2023-04-03T05:14:59;11.30;94.20
16863;DHT22;52193;48.216;-1.698;2023-04-03T05:17:27;11.20;94.20
16863;DHT22;52193;48.216;-1.698;2023-04-03T05:19:54;11.20;94.20
16863;DHT22;52193;48.216;-1.698;2023-04-03T05:22:21;11.30;94.20
16863;DHT22;52193;48.216;-1.698;2023-04-03T05:24:47;11.30;94.20
16863;DHT22;52193;48.216;-1.698;2023-04-03T05:27:14;11.30;94.10
16863;DHT22;52193;48.216;-1.698;2023-04-03T05:29:42;11.30;94.10
16863;DHT22;52193;48.216;-1.698;2023-04-03T05:32:09;11.30;94.00
16863;DHT22;52193;48.216;-1.698;2023-04-03T05:34:38;11.30;94.00
16863;DHT22;52193;48.216;-1.698;2023-04-03T05:37:05;11.30;93.90
16863;DHT22;52193;48.216;-1.698;2023-04-03T05:39:32;11.30;93.90
16863;DHT22;52193;48.216;-1.698;2023-04-03T05:41:59;11.30;93.90
16863;DHT22;52193;48.216;-1.698;2023-04-03T05:44:26;11.30;93.90
16863;DHT22;52193;48.216;-1.698;2023-04-03T05:46:53;11.30;93.90
16863;DHT22;52193;48.216;-1.698;2023-04-03T05:49:20;11.30;93.90
16863;DHT22;52193;48.216;-1.698;2023-04-03T05:51:48;11.30;93.80
16863;DHT22;52193;48.216;-1.698;2023-04-03T05:54:19;11.30;93.80
16863;DHT22;52193;48.216;-1.698;2023-04-03T05:56:48;11.30;93.90
16863;DHT22;52193;48.216;-1.698;2023-04-03T05:59:15;11.30;93.80
16863;DHT22;52193;48.216;-1.698;2023-04-03T06:01:42;11.30;93.80
16863;DHT22;52193;48.216;-1.698;2023-04-03T06:04:09;11.30;93.80
16863;DHT22;52193;48.216;-1.698;2023-04-03T06:06:44;11.30;93.80
16863;DHT22;52193;48.216;-1.698;2023-04-03T06:09:13;11.30;93.80
16863;DHT22;52193;48.216;-1.698;2023-04-03T06:11:40;11.30;93.70
16863;DHT22;52193;48.216;-1.698;2023-04-03T06:14:07;11.40;93.70
16863;DHT22;52193;48.216;-1.698;2023-04-03T06:16:34;11.40;93.70
16863;DHT22;52193;48.216;-1.698;2023-04-03T06:19:01;11.40;93.70
16863;DHT22;52193;48.216;-1.698;2023-04-03T06:21:30;11.30;93.80
16863;DHT22;52193;48.216;-1.698;2023-04-03T06:23:57;11.40;93.90
16863;DHT22;52193;48.216;-1.698;2023-04-03T06:26:25;11.40;93.90
16863;DHT22;52193;48.216;-1.698;2023-04-03T06:28:52;11.40;93.90
16863;DHT22;52193;48.216;-1.698;2023-04-03T06:31:19;11.50;93.90
16863;DHT22;52193;48.216;-1.698;2023-04-03T06:33:46;11.50;93.90
16863;DHT22;52193;48.216;-1.698;2023-04-03T06:36:13;11.50;93.90
16863;DHT22;52193;48.216;-1.698;2023-04-03T06:38:41;11.50;94.00
16863;DHT22;52193;48.216;-1.698;2023-04-03T06:41:07;11.50;93.80
16863;DHT22;52193;48.216;-1.698;2023-04-03T06:43:36;11.50;93.40
16863;DHT22;52193;48.216;-1.698;2023-04-03T06:46:03;11.50;93.20
16863;DHT22;52193;48.216;-1.698;2023-04-03T06:48:30;11.50;93.20
16863;DHT22;52193;48.216;-1.698;2023-04-03T06:50:57;11.60;93.10
16863;DHT22;52193;48.216;-1.698;2023-04-03T06:53:24;11.60;92.90
16863;DHT22;52193;48.216;-1.698;2023-04-03T06:55:51;11.50;92.80
16863;DHT22;52193;48.216;-1.698;2023-04-03T06:58:18;11.60;92.70
16863;DHT22;52193;48.216;-1.698;2023-04-03T07:00:47;11.60;92.60
16863;DHT22;52193;48.216;-1.698;2023-04-03T07:03:14;11.60;92.70
16863;DHT22;52193;48.216;-1.698;2023-04-03T07:05:41;11.70;92.80
16863;DHT22;52193;48.216;-1.698;2023-04-03T07:08:10;11.60;92.70
16863;DHT22;52193;48.216;-1.698;2023-04-03T07:10:38;11.60;92.90
16863;DHT22;52193;48.216;-1.698;2023-04-03T07:13:05;11.70;92.60
16863;DHT22;52193;48.216;-1.698;2023-04-03T07:15:31;11.70;92.60
16863;DHT22;52193;48.216;-1.698;2023-04-03T07:18:00;11.70;92.60
16863;DHT22;52193;48.216;-1.698;2023-04-03T07:20:27;11.70;92.40
16863;DHT22;52193;48.216;-1.698;2023-04-03T07:22:54;11.80;92.40
16863;DHT22;52193;48.216;-1.698;2023-04-03T07:25:21;11.70;92.40
16863;DHT22;52193;48.216;-1.698;2023-04-03T07:27:48;11.80;92.40
16863;DHT22;52193;48.216;-1.698;2023-04-03T07:30:15;11.80;92.40
16863;DHT22;52193;48.216;-1.698;2023-04-03T07:32:43;11.90;92.40
16863;DHT22;52193;48.216;-1.698;2023-04-03T07:35:11;11.90;92.30
16863;DHT22;52193;48.216;-1.698;2023-04-03T07:37:38;11.90;92.20
16863;DHT22;52193;48.216;-1.698;2023-04-03T07:40:06;12.00;92.20
16863;DHT22;52193;48.216;-1.698;2023-04-03T07:42:34;12.00;92.40
16863;DHT22;52193;48.216;-1.698;2023-04-03T07:45:02;12.00;92.40
16863;DHT22;52193;48.216;-1.698;2023-04-03T07:47:29;12.00;92.20
16863;DHT22;52193;48.216;-1.698;2023-04-03T07:49:56;12.00;92.40
16863;DHT22;52193;48.216;-1.698;2023-04-03T07:52:25;12.20;92.40
16863;DHT22;52193;48.216;-1.698;2023-04-03T07:54:52;12.10;92.40
16863;DHT22;52193;48.216;-1.698;2023-04-03T07:57:19;12.10;92.50
16863;DHT22;52193;48.216;-1.698;2023-04-03T07:59:46;12.20;92.40
16863;DHT22;52193;48.216;-1.698;2023-04-03T08:02:13;12.20;92.40
16863;DHT22;52193;48.216;-1.698;2023-04-03T08:04:40;12.30;92.60
16863;DHT22;52193;48.216;-1.698;2023-04-03T08:07:07;12.30;92.60
16863;DHT22;52193;48.216;-1.698;2023-04-03T08:09:35;12.30;92.40
16863;DHT22;52193;48.216;-1.698;2023-04-03T08:12:02;12.40;92.60
16863;DHT22;52193;48.216;-1.698;2023-04-03T08:14:31;12.40;92.50
16863;DHT22;52193;48.216;-1.698;2023-04-03T08:17:00;12.40;92.40
16863;DHT22;52193;48.216;-1.698;2023-04-03T08:19:28;12.40;92.50
16863;DHT22;52193;48.216;-1.698;2023-04-03T08:21:55;12.50;92.50
16863;DHT22;52193;48.216;-1.698;2023-04-03T08:24:23;12.50;92.50
16863;DHT22;52193;48.216;-1.698;2023-04-03T08:26:51;12.60;92.60
16863;DHT22;52193;48.216;-1.698;2023-04-03T08:29:18;12.60;92.70
16863;DHT22;52193;48.216;-1.698;2023-04-03T08:31:45;12.60;92.80
16863;DHT22;52193;48.216;-1.698;2023-04-03T08:34:12;12.70;92.80
16863;DHT22;52193;48.216;-1.698;2023-04-03T08:36:40;12.70;92.80
16863;DHT22;52193;48.216;-1.698;2023-04-03T08:39:07;12.70;92.80
16863;DHT22;52193;48.216;-1.698;2023-04-03T08:41:35;12.80;92.80
16863;DHT22;52193;48.216;-1.698;2023-04-03T08:44:23;12.80;92.80
16863;DHT22;52193;48.216;-1.698;2023-04-03T08:47:04;12.80;92.60
16863;DHT22;52193;48.216;-1.698;2023-04-03T08:49:40;12.90;92.60
16863;DHT22;52193;48.216;-1.698;2023-04-03T08:52:14;12.90;92.70
16863;DHT22;52193;48.216;-1.698;2023-04-03T08:54:49;13.00;92.80
16863;DHT22;52193;48.216;-1.698;2023-04-03T08:57:19;12.90;92.60
16863;DHT22;52193;48.216;-1.698;2023-04-03T08:59:48;12.90;92.70
16863;DHT22;52193;48.216;-1.698;2023-04-03T09:02:24;13.00;92.70
16863;DHT22;52193;48.216;-1.698;2023-04-03T09:04:53;13.00;92.80
16863;DHT22;52193;48.216;-1.698;2023-04-03T09:07:25;13.00;92.70
16863;DHT22;52193;48.216;-1.698;2023-04-03T09:09:55;13.10;92.80
16863;DHT22;52193;48.216;-1.698;2023-04-03T09:12:27;13.20;92.70
16863;DHT22;52193;48.216;-1.698;2023-04-03T09:15:02;13.20;92.80
16863;DHT22;52193;48.216;-1.698;2023-04-03T09:17:41;13.20;92.80
16863;DHT22;52193;48.216;-1.698;2023-04-03T09:20:19;13.20;92.60
16863;DHT22;52193;48.216;-1.698;2023-04-03T09:22:47;13.20;92.50
16863;DHT22;52193;48.216;-1.698;2023-04-03T09:25:18;13.20;92.70
16863;DHT22;52193;48.216;-1.698;2023-04-03T09:27:46;13.20;92.70
16863;DHT22;52193;48.216;-1.698;2023-04-03T09:30:16;13.20;92.90
16863;DHT22;52193;48.216;-1.698;2023-04-03T09:32:45;13.20;92.80
16863;DHT22;52193;48.216;-1.698;2023-04-03T09:35:25;13.20;92.90
16863;DHT22;52193;48.216;-1.698;2023-04-03T09:37:54;13.30;93.00
16863;DHT22;52193;48.216;-1.698;2023-04-03T09:40:34;13.40;93.10
16863;DHT22;52193;48.216;-1.698;2023-04-03T09:43:29;13.40;92.90
16863;DHT22;52193;48.216;-1.698;2023-04-03T09:46:18;13.50;92.80
16863;DHT22;52193;48.216;-1.698;2023-04-03T09:48:51;13.40;92.80
16863;DHT22;52193;48.216;-1.698;2023-04-03T09:51:18;13.50;92.90
16863;DHT22;52193;48.216;-1.698;2023-04-03T09:53:45;13.50;92.90
16863;DHT22;52193;48.216;-1.698;2023-04-03T09:56:21;13.50;92.70
16863;DHT22;52193;48.216;-1.698;2023-04-03T09:58:49;13.60;92.60
16863;DHT22;52193;48.216;-1.698;2023-04-03T10:01:27;13.60;92.60
16863;DHT22;52193;48.216;-1.698;2023-04-03T10:04:07;13.60;92.80
16863;DHT22;52193;48.216;-1.698;2023-04-03T10:06:36;13.70;92.80
16863;DHT22;52193;48.216;-1.698;2023-04-03T10:09:14;13.70;92.70
16863;DHT22;52193;48.216;-1.698;2023-04-03T10:11:57;13.70;92.80
16863;DHT22;52193;48.216;-1.698;2023-04-03T10:14:24;13.80;92.70
16863;DHT22;52193;48.216;-1.698;2023-04-03T10:16:59;13.80;92.80
16863;DHT22;52193;48.216;-1.698;2023-04-03T10:19:36;13.80;92.70
16863;DHT22;52193;48.216;-1.698;2023-04-03T10:22:16;13.90;92.80
16863;DHT22;52193;48.216;-1.698;2023-04-03T10:24:52;13.90;92.70
16863;DHT22;52193;48.216;-1.698;2023-04-03T10:27:30;14.00;92.60
16863;DHT22;52193;48.216;-1.698;2023-04-03T10:30:04;14.10;92.70
16863;DHT22;52193;48.216;-1.698;2023-04-03T10:32:54;14.20;92.50
16863;DHT22;52193;48.216;-1.698;2023-04-03T10:35:34;14.30;92.20
16863;DHT22;52193;48.216;-1.698;2023-04-03T10:38:09;14.30;92.20
16863;DHT22;52193;48.216;-1.698;2023-04-03T10:40:46;14.40;92.10
16863;DHT22;52193;48.216;-1.698;2023-04-03T10:43:21;14.50;92.20
16863;DHT22;52193;48.216;-1.698;2023-04-03T10:45:57;14.60;92.10
16863;DHT22;52193;48.216;-1.698;2023-04-03T10:48:40;14.80;91.80
16863;DHT22;52193;48.216;-1.698;2023-04-03T10:51:20;15.00;91.90
16863;DHT22;52193;48.216;-1.698;2023-04-03T10:53:55;15.20;92.00
16863;DHT22;52193;48.216;-1.698;2023-04-03T10:56:30;15.30;91.90
16863;DHT22;52193;48.216;-1.698;2023-04-03T10:58:59;15.40;91.70
16863;DHT22;52193;48.216;-1.698;2023-04-03T11:01:32;15.50;91.50
16863;DHT22;52193;48.216;-1.698;2023-04-03T11:04:04;15.60;91.60
16863;DHT22;52193;48.216;-1.698;2023-04-03T11:06:35;15.70;91.70
16863;DHT22;52193;48.216;-1.698;2023-04-03T11:09:07;15.70;91.40
16863;DHT22;52193;48.216;-1.698;2023-04-03T11:11:39;15.60;91.40
16863;DHT22;52193;48.216;-1.698;2023-04-03T11:14:13;15.70;92.00
16863;DHT22;52193;48.216;-1.698;2023-04-03T11:16:45;15.90;91.50
16863;DHT22;52193;48.216;-1.698;2023-04-03T11:19:18;16.00;91.30
16863;DHT22;52193;48.216;-1.698;2023-04-03T11:21:52;16.00;91.10
16863;DHT22;52193;48.216;-1.698;2023-04-03T11:24:24;16.00;91.30
16863;DHT22;52193;48.216;-1.698;2023-04-03T11:26:53;16.00;91.40
16863;DHT22;52193;48.216;-1.698;2023-04-03T11:29:24;16.00;91.30
16863;DHT22;52193;48.216;-1.698;2023-04-03T11:32:06;16.00;91.20
16863;DHT22;52193;48.216;-1.698;2023-04-03T11:34:39;16.10;90.90
16863;DHT22;52193;48.216;-1.698;2023-04-03T11:37:13;16.10;91.30
16863;DHT22;52193;48.216;-1.698;2023-04-03T11:39:49;16.20;91.10
16863;DHT22;52193;48.216;-1.698;2023-04-03T11:42:26;16.30;91.20
16863;DHT22;52193;48.216;-1.698;2023-04-03T11:47:59;16.50;91.30
16863;DHT22;52193;48.216;-1.698;2023-04-03T11:50:44;16.70;91.50
16863;DHT22;52193;48.216;-1.698;2023-04-03T11:53:30;16.90;91.40
16863;DHT22;52193;48.216;-1.698;2023-04-03T11:55:59;17.20;91.40
16863;DHT22;52193;48.216;-1.698;2023-04-03T11:58:29;17.50;90.90
16863;DHT22;52193;48.216;-1.698;2023-04-03T12:00:59;18.00;91.00
16863;DHT22;52193;48.216;-1.698;2023-04-03T12:10:15;19.10;89.20
16863;DHT22;52193;48.216;-1.698;2023-04-03T12:12:56;19.60;89.40
16863;DHT22;52193;48.216;-1.698;2023-04-03T12:15:52;20.00;88.30
16863;DHT22;52193;48.216;-1.698;2023-04-03T12:18:56;20.40;87.70
16863;DHT22;52193;48.216;-1.698;2023-04-03T12:21:49;20.90;87.70
16863;DHT22;52193;48.216;-1.698;2023-04-03T12:24:24;21.30;86.50
16863;DHT22;52193;48.216;-1.698;2023-04-03T12:27:05;21.80;84.80
16863;DHT22;52193;48.216;-1.698;2023-04-03T12:29:39;22.10;84.30
16863;DHT22;52193;48.216;-1.698;2023-04-03T12:32:19;22.60;84.80
16863;DHT22;52193;48.216;-1.698;2023-04-03T12:35:01;23.20;83.40
16863;DHT22;52193;48.216;-1.698;2023-04-03T12:37:44;23.70;83.10
16863;DHT22;52193;48.216;-1.698;2023-04-03T12:40:26;24.20;83.10
16863;DHT22;52193;48.216;-1.698;2023-04-03T12:43:18;24.70;81.70
16863;DHT22;52193;48.216;-1.698;2023-04-03T12:45:51;24.90;80.00
16863;DHT22;52193;48.216;-1.698;2023-04-03T12:48:24;25.20;79.80
16863;DHT22;52193;48.216;-1.698;2023-04-03T12:50:52;25.60;77.40
16863;DHT22;52193;48.216;-1.698;2023-04-03T12:53:21;25.70;76.80
16863;DHT22;52193;48.216;-1.698;2023-04-03T12:55:54;26.20;78.00
16863;DHT22;52193;48.216;-1.698;2023-04-03T12:58:24;26.50;77.40
16863;DHT22;52193;48.216;-1.698;2023-04-03T13:01:02;26.60;76.00
16863;DHT22;52193;48.216;-1.698;2023-04-03T13:03:30;27.20;76.30
16863;DHT22;52193;48.216;-1.698;2023-04-03T13:05:59;27.60;75.30
16863;DHT22;52193;48.216;-1.698;2023-04-03T13:08:27;27.60;74.80
16863;DHT22;52193;48.216;-1.698;2023-04-03T13:10:58;27.90;74.30
16863;DHT22;52193;48.216;-1.698;2023-04-03T13:13:27;28.00;73.60
16863;DHT22;52193;48.216;-1.698;2023-04-03T13:15:55;28.10;73.20
16863;DHT22;52193;48.216;-1.698;2023-04-03T13:18:28;28.50;72.90
16863;DHT22;52193;48.216;-1.698;2023-04-03T13:21:01;28.50;72.50
16863;DHT22;52193;48.216;-1.698;2023-04-03T13:23:29;28.70;72.40
16863;DHT22;52193;48.216;-1.698;2023-04-03T13:25:57;29.10;71.50
16863;DHT22;52193;48.216;-1.698;2023-04-03T13:28:31;29.40;70.70
16863;DHT22;52193;48.216;-1.698;2023-04-03T13:31:15;29.40;69.10
16863;DHT22;52193;48.216;-1.698;2023-04-03T13:33:54;29.40;67.90
16863;DHT22;52193;48.216;-1.698;2023-04-03T13:36:24;29.20;68.60
16863;DHT22;52193;48.216;-1.698;2023-04-03T13:39:04;29.30;68.30
16863;DHT22;52193;48.216;-1.698;2023-04-03T13:41:33;29.30;67.20
16863;DHT22;52193;48.216;-1.698;2023-04-03T13:44:30;29.60;67.80
16863;DHT22;52193;48.216;-1.698;2023-04-03T13:46:59;30.20;66.20
16863;DHT22;52193;48.216;-1.698;2023-04-03T13:49:33;30.60;65.90
16863;DHT22;52193;48.216;-1.698;2023-04-03T13:52:02;30.70;65.70
16863;DHT22;52193;48.216;-1.698;2023-04-03T13:54:32;31.00;65.20
16863;DHT22;52193;48.216;-1.698;2023-04-03T13:57:00;31.10;64.40
16863;DHT22;52193;48.216;-1.698;2023-04-03T13:59:31;31.40;64.60
16863;DHT22;52193;48.216;-1.698;2023-04-03T14:02:14;31.80;63.90
16863;DHT22;52193;48.216;-1.698;2023-04-03T14:04:49;31.80;63.40
16863;DHT22;52193;48.216;-1.698;2023-04-03T14:07:18;32.20;63.40
16863;DHT22;52193;48.216;-1.698;2023-04-03T14:09:46;32.40;62.20
16863;DHT22;52193;48.216;-1.698;2023-04-03T14:12:17;32.80;62.10
16863;DHT22;52193;48.216;-1.698;2023-04-03T14:14:46;32.80;60.90
16863;DHT22;52193;48.216;-1.698;2023-04-03T14:17:16;33.00;60.60
16863;DHT22;52193;48.216;-1.698;2023-04-03T14:19:43;33.60;60.80
16863;DHT22;52193;48.216;-1.698;2023-04-03T14:22:15;34.20;60.00
16863;DHT22;52193;48.216;-1.698;2023-04-03T14:24:42;34.20;58.50
16863;DHT22;52193;48.216;-1.698;2023-04-03T14:27:15;34.40;59.00
16863;DHT22;52193;48.216;-1.698;2023-04-03T14:29:43;34.20;57.90
16863;DHT22;52193;48.216;-1.698;2023-04-03T14:32:13;34.20;58.20
16863;DHT22;52193;48.216;-1.698;2023-04-03T14:34:40;34.20;58.40
16863;DHT22;52193;48.216;-1.698;2023-04-03T14:37:10;34.20;57.50
16863;DHT22;52193;48.216;-1.698;2023-04-03T14:39:38;34.60;57.90
16863;DHT22;52193;48.216;-1.698;2023-04-03T14:42:05;35.30;57.70
16863;DHT22;52193;48.216;-1.698;2023-04-03T14:44:33;35.60;57.50
16863;DHT22;52193;48.216;-1.698;2023-04-03T14:47:00;35.70;57.00
16863;DHT22;52193;48.216;-1.698;2023-04-03T14:49:29;35.70;56.80
16863;DHT22;52193;48.216;-1.698;2023-04-03T14:51:57;35.60;57.20
16863;DHT22;52193;48.216;-1.698;2023-04-03T14:54:24;35.70;57.00
16863;DHT22;52193;48.216;-1.698;2023-04-03T14:56:53;35.70;56.50
16863;DHT22;52193;48.216;-1.698;2023-04-03T14:59:21;35.20;56.20
16863;DHT22;52193;48.216;-1.698;2023-04-03T15:01:48;35.60;56.30
16863;DHT22;52193;48.216;-1.698;2023-04-03T15:04:17;36.00;56.30
16863;DHT22;52193;48.216;-1.698;2023-04-03T15:06:47;36.10;55.70
16863;DHT22;52193;48.216;-1.698;2023-04-03T15:09:19;36.30;55.10
16863;DHT22;52193;48.216;-1.698;2023-04-03T15:11:47;35.90;54.90
16863;DHT22;52193;48.216;-1.698;2023-04-03T15:14:14;36.20;55.10
16863;DHT22;52193;48.216;-1.698;2023-04-03T15:16:41;36.20;55.10
16863;DHT22;52193;48.216;-1.698;2023-04-03T15:19:08;36.30;55.30
16863;DHT22;52193;48.216;-1.698;2023-04-03T15:21:35;36.70;54.60
16863;DHT22;52193;48.216;-1.698;2023-04-03T15:24:03;37.10;54.30
16863;DHT22;52193;48.216;-1.698;2023-04-03T15:26:30;37.60;53.40
16863;DHT22;52193;48.216;-1.698;2023-04-03T15:28:58;38.00;53.10
16863;DHT22;52193;48.216;-1.698;2023-04-03T15:31:25;38.30;52.90
16863;DHT22;52193;48.216;-1.698;2023-04-03T15:33:52;38.80;52.00
16863;DHT22;52193;48.216;-1.698;2023-04-03T15:36:19;39.20;51.20
16863;DHT22;52193;48.216;-1.698;2023-04-03T15:38:45;39.50;50.50
16863;DHT22;52193;48.216;-1.698;2023-04-03T15:41:14;39.30;50.40
16863;DHT22;52193;48.216;-1.698;2023-04-03T15:43:41;39.20;50.60
16863;DHT22;52193;48.216;-1.698;2023-04-03T15:46:07;39.30;50.40